Aviation Digital Data Service (ADDS)

Output produced by METARs form (1423 UTC 22 April 2019)
found at http://www.aviationweather.gov/metar/data/
 
METAR text: VTUW 221100Z 31003KT 280V010 9999 FEW035 BKN100 26/24 Q1006 NOSIG
Conditions at: VTUW (NAKHON PHANOM , TH) observed 1100 UTC 22 April 2019
Temperature: 26.0°C (79°F)
Dewpoint: 24.0°C (75°F) [RH = 89%]
Pressure (altimeter): 29.70 inches Hg (1006.0 mb)
Winds: from the NW (310 degrees) at 3 MPH (3 knots; 1.5 m/s)
Visibility: 6 or more miles (10+ km)
Ceiling: 10000 feet AGL
Clouds: few clouds at 3500 feet AGL
broken clouds at 10000 feet AGL
Weather: no significant weather observed at this time

METAR text: VTUW 221000Z 16003KT 9999 FEW035 BKN100 26/23 Q1005 NOSIG
Conditions at: VTUW (NAKHON PHANOM , TH) observed 1000 UTC 22 April 2019
Temperature: 26.0°C (79°F)
Dewpoint: 23.0°C (73°F) [RH = 84%]
Pressure (altimeter): 29.68 inches Hg (1005.0 mb)
Winds: from the SSE (160 degrees) at 3 MPH (3 knots; 1.5 m/s)
Visibility: 6 or more miles (10+ km)
Ceiling: 10000 feet AGL
Clouds: few clouds at 3500 feet AGL
broken clouds at 10000 feet AGL
Weather: no significant weather observed at this time

METAR text: VTUW 220900Z 15006KT 9999 FEW035 BKN100 26/22 Q1006 NOSIG
Conditions at: VTUW (NAKHON PHANOM , TH) observed 0900 UTC 22 April 2019
Temperature: 26.0°C (79°F)
Dewpoint: 22.0°C (72°F) [RH = 79%]
Pressure (altimeter): 29.70 inches Hg (1006.0 mb)
Winds: from the SSE (150 degrees) at 7 MPH (6 knots; 3.1 m/s)
Visibility: 6 or more miles (10+ km)
Ceiling: 10000 feet AGL
Clouds: few clouds at 3500 feet AGL
broken clouds at 10000 feet AGL
Weather: no significant weather observed at this time

METAR text: VTUW 220800Z 15008KT CAVOK 28/22 Q1007 NOSIG
Conditions at: VTUW (NAKHON PHANOM , TH) observed 0800 UTC 22 April 2019
Temperature: 28.0°C (82°F)
Dewpoint: 22.0°C (72°F) [RH = 70%]
Pressure (altimeter): 29.73 inches Hg (1007.0 mb)
Winds: from the SSE (150 degrees) at 9 MPH (8 knots; 4.1 m/s)
Visibility: 6 or more miles (10+ km)
Ceiling: ceiling and visibility are OK
Clouds: unknown
Weather: no significant weather observed at this time

METAR text: VTUW 220700Z 15009KT CAVOK 29/23 Q1007 NOSIG
Conditions at: VTUW (NAKHON PHANOM , TH) observed 0700 UTC 22 April 2019
Temperature: 29.0°C (84°F)
Dewpoint: 23.0°C (73°F) [RH = 70%]
Pressure (altimeter): 29.73 inches Hg (1007.0 mb)
Winds: from the SSE (150 degrees) at 10 MPH (9 knots; 4.6 m/s)
Visibility: 6 or more miles (10+ km)
Ceiling: ceiling and visibility are OK
Clouds: unknown
Weather: no significant weather observed at this time

METAR text: VTUW 220600Z 13012KT 9999 FEW030 29/24 Q1009 NOSIG
Conditions at: VTUW (NAKHON PHANOM , TH) observed 0600 UTC 22 April 2019
Temperature: 29.0°C (84°F)
Dewpoint: 24.0°C (75°F) [RH = 74%]
Pressure (altimeter): 29.79 inches Hg (1009.0 mb)
Winds: from the SE (130 degrees) at 14 MPH (12 knots; 6.2 m/s)
Visibility: 6 or more miles (10+ km)
Ceiling: at least 12,000 feet AGL
Clouds: few clouds at 3000 feet AGL
Weather: no significant weather observed at this time

METAR text: VTUW 220500Z 11009KT 9999 SCT030 SCT070 25/23 Q1009 RETS NOSIG
Conditions at: VTUW (NAKHON PHANOM , TH) observed 0500 UTC 22 April 2019
Temperature: 25.0°C (77°F)
Dewpoint: 23.0°C (73°F) [RH = 89%]
Pressure (altimeter): 29.79 inches Hg (1009.0 mb)
Winds: from the ESE (110 degrees) at 10 MPH (9 knots; 4.6 m/s)
Visibility: 6 or more miles (10+ km)
Ceiling: at least 12,000 feet AGL
Clouds: scattered clouds at 3000 feet AGL
scattered clouds at 7000 feet AGL
Weather: no significant weather observed at this time

METAR text: VTUW 220400Z 25007KT 170V330 7000 -TSRA FEW020CB OVC030 23/21 Q1010 RERA NOSIG
Conditions at: VTUW (NAKHON PHANOM , TH) observed 0400 UTC 22 April 2019
Temperature: 23.0°C (73°F)
Dewpoint: 21.0°C (70°F) [RH = 89%]
Pressure (altimeter): 29.82 inches Hg (1010.0 mb)
Winds: from the WSW (250 degrees) at 8 MPH (7 knots; 3.6 m/s)
Visibility: 4 miles ( 7 km)
Ceiling: 3000 feet AGL
Clouds: few clouds at 2000 feet AGL
overcast cloud deck at 3000 feet AGL
Weather: -TSRA  (light rain associated with thunderstorm(s))

METAR text: VTUW 220300Z 09005KT 060V120 9999 TS VCSH FEW015CB BKN040 24/22 Q1010 NOSIG
Conditions at: VTUW (NAKHON PHANOM , TH) observed 0300 UTC 22 April 2019
Temperature: 24.0°C (75°F)
Dewpoint: 22.0°C (72°F) [RH = 89%]
Pressure (altimeter): 29.82 inches Hg (1010.0 mb)
Winds: from the E (90 degrees) at 6 MPH (5 knots; 2.6 m/s)
Visibility: 6 or more miles (10+ km)
Ceiling: 4000 feet AGL
Clouds: few clouds at 1500 feet AGL
broken clouds at 4000 feet AGL
Weather: TS VCSH  (thunderstorm, showers in vicinity)

METAR text: VTUW 220200Z 09005KT 060V120 8000 -TSRA FEW008 FEW015CB BKN030 24/24 Q1010 RERA NOSIG
Conditions at: VTUW (NAKHON PHANOM , TH) observed 0200 UTC 22 April 2019
Temperature: 24.0°C (75°F)
Dewpoint: 24.0°C (75°F) [RH = 100%]
Pressure (altimeter): 29.82 inches Hg (1010.0 mb)
Winds: from the E (90 degrees) at 6 MPH (5 knots; 2.6 m/s)
Visibility: 5 miles ( 8 km)
Ceiling: 3000 feet AGL
Clouds: few clouds at 800 feet AGL
few clouds at 1500 feet AGL
broken clouds at 3000 feet AGL
Weather: -TSRA  (light rain associated with thunderstorm(s))

METAR text: VTUW 220100Z 08011KT 040V100 9999 TS VCSH SCT015 OVC035 26/23 Q1009 TEMPO FM0120 TL0200 2000 +TSRA
Conditions at: VTUW (NAKHON PHANOM , TH) observed 0100 UTC 22 April 2019
Temperature: 26.0°C (79°F)
Dewpoint: 23.0°C (73°F) [RH = 84%]
Pressure (altimeter): 29.79 inches Hg (1009.0 mb)
Winds: from the E (80 degrees) at 13 MPH (11 knots; 5.7 m/s)
Visibility: 6 or more miles (10+ km)
Ceiling: 3500 feet AGL
Clouds: scattered clouds at 1500 feet AGL
overcast cloud deck at 3500 feet AGL
Weather: TS VCSH  (thunderstorm, showers in vicinity)

METAR text: VTUW 211100Z VRB02KT 9000 FEW015 SCT100 32/21 Q1002 NOSIG
Conditions at: VTUW (NAKHON PHANOM , TH) observed 1100 UTC 21 April 2019
Temperature: 32.0°C (90°F)
Dewpoint: 21.0°C (70°F) [RH = 52%]
Pressure (altimeter): 29.59 inches Hg (1002.0 mb)
Winds: variable direction winds at 2 MPH (2 knots; 1.0 m/s)
Visibility: 6 miles ( 9 km)
Ceiling: at least 12,000 feet AGL
Clouds: few clouds at 1500 feet AGL
scattered clouds at 10000 feet AGL
Weather: no significant weather observed at this time

METAR text: VTUW 211000Z 28006KT 9999 FEW030 SCT100 31/20 Q1002 NOSIG
Conditions at: VTUW (NAKHON PHANOM , TH) observed 1000 UTC 21 April 2019
Temperature: 31.0°C (88°F)
Dewpoint: 20.0°C (68°F) [RH = 52%]
Pressure (altimeter): 29.59 inches Hg (1002.0 mb)
Winds: from the W (280 degrees) at 7 MPH (6 knots; 3.1 m/s)
Visibility: 6 or more miles (10+ km)
Ceiling: at least 12,000 feet AGL
Clouds: few clouds at 3000 feet AGL
scattered clouds at 10000 feet AGL
Weather: no significant weather observed at this time

METAR text: VTUW 210900Z 21005KT 170V240 9999 VCTS FEW025CB SCT040 36/24 Q1002 NOSIG
Conditions at: VTUW (NAKHON PHANOM , TH) observed 0900 UTC 21 April 2019
Temperature: 36.0°C (97°F)
Dewpoint: 24.0°C (75°F) [RH = 50%]
Pressure (altimeter): 29.59 inches Hg (1002.0 mb)
Winds: from the SSW (210 degrees) at 6 MPH (5 knots; 2.6 m/s)
Visibility: 6 or more miles (10+ km)
Ceiling: at least 12,000 feet AGL
Clouds: few clouds at 2500 feet AGL
scattered clouds at 4000 feet AGL
Weather: VCTS  (thunderstorm in vicinity)

METAR text: VTUW 210800Z 17003KT 9999 SCT045 38/25 Q1002 NOSIG
Conditions at: VTUW (NAKHON PHANOM , TH) observed 0800 UTC 21 April 2019
Temperature: 38.0°C (100°F)
Dewpoint: 25.0°C (77°F) [RH = 48%]
Pressure (altimeter): 29.59 inches Hg (1002.0 mb)
Winds: from the S (170 degrees) at 3 MPH (3 knots; 1.5 m/s)
Visibility: 6 or more miles (10+ km)
Ceiling: at least 12,000 feet AGL
Clouds: scattered clouds at 4500 feet AGL
Weather: no significant weather observed at this time

METAR text: VTUW 210700Z 23004KT 170V280 9999 SCT045 38/24 Q1003 NOSIG
Conditions at: VTUW (NAKHON PHANOM , TH) observed 0700 UTC 21 April 2019
Temperature: 38.0°C (100°F)
Dewpoint: 24.0°C (75°F) [RH = 45%]
Pressure (altimeter): 29.62 inches Hg (1003.0 mb)
Winds: from the SW (230 degrees) at 5 MPH (4 knots; 2.1 m/s)
Visibility: 6 or more miles (10+ km)
Ceiling: at least 12,000 feet AGL
Clouds: scattered clouds at 4500 feet AGL
Weather: no significant weather observed at this time

METAR text: VTUW 210600Z VRB05KT 9999 SCT045 38/24 Q1005 NOSIG
Conditions at: VTUW (NAKHON PHANOM , TH) observed 0600 UTC 21 April 2019
Temperature: 38.0°C (100°F)
Dewpoint: 24.0°C (75°F) [RH = 45%]
Pressure (altimeter): 29.68 inches Hg (1005.0 mb)
Winds: variable direction winds at 6 MPH (5 knots; 2.6 m/s)
Visibility: 6 or more miles (10+ km)
Ceiling: at least 12,000 feet AGL
Clouds: scattered clouds at 4500 feet AGL
Weather: no significant weather observed at this time

METAR text: VTUW 210500Z 14006KT 080V220 9999 FEW045 37/25 Q1006 NOSIG
Conditions at: VTUW (NAKHON PHANOM , TH) observed 0500 UTC 21 April 2019
Temperature: 37.0°C (99°F)
Dewpoint: 25.0°C (77°F) [RH = 50%]
Pressure (altimeter): 29.70 inches Hg (1006.0 mb)
Winds: from the SE (140 degrees) at 7 MPH (6 knots; 3.1 m/s)
Visibility: 6 or more miles (10+ km)
Ceiling: at least 12,000 feet AGL
Clouds: few clouds at 4500 feet AGL
Weather: no significant weather observed at this time

METAR text: VTUW 210400Z 12006KT 060V180 8000 FEW040 35/25 Q1007 NOSIG
Conditions at: VTUW (NAKHON PHANOM , TH) observed 0400 UTC 21 April 2019
Temperature: 35.0°C (95°F)
Dewpoint: 25.0°C (77°F) [RH = 56%]
Pressure (altimeter): 29.73 inches Hg (1007.0 mb)
Winds: from the ESE (120 degrees) at 7 MPH (6 knots; 3.1 m/s)
Visibility: 5 miles ( 8 km)
Ceiling: at least 12,000 feet AGL
Clouds: few clouds at 4000 feet AGL
Weather: no significant weather observed at this time

METAR text: VTUW 210300Z 14007KT 100V170 7000 NSC 34/25 Q1007 NOSIG
Conditions at: VTUW (NAKHON PHANOM , TH) observed 0300 UTC 21 April 2019
Temperature: 34.0°C (93°F)
Dewpoint: 25.0°C (77°F) [RH = 60%]
Pressure (altimeter): 29.73 inches Hg (1007.0 mb)
Winds: from the SE (140 degrees) at 8 MPH (7 knots; 3.6 m/s)
Visibility: 4 miles ( 7 km)
Ceiling: at least 12,000 feet AGL
Clouds: sky clear below 12,000 feet AGL
Weather: no significant weather observed at this time

Forecast for: VTUW (NAKHON PHANOM , TH)
Text: TAF VTUW 221100Z 2212/2312 17005KT 9000 FEW035
Forecast period: 1200 UTC 22 April 2019 to 1200 UTC 23 April 2019
Forecast type: FROM: standard forecast or significant change
Winds: from the S (170 degrees) at 6 MPH (5 knots; 2.6 m/s)
Visibility: 6 miles (9 km)
Ceiling: at least 12,000 feet AGL
Clouds: few clouds at 3500 feet AGL
Weather: no significant weather forecast for this period
Text: TEMPO 2215/2220 VRB10G25KT 5000 TSRA FEW018CB BKN020 BKN080
Forecast period: 1500 to 2000 UTC 22 April 2019
Forecast type: TEMPORARY: The following changes expected for less than half the time period
Winds: variable direction winds at 12 MPH (10 knots; 5.1 m/s)
gusting to 29 MPH (25 knots; 12.9 m/s)
Visibility: 3 miles (5 km)
Ceiling: 2000 feet AGL
Clouds: few clouds at 1800 feet AGL
broken clouds at 2000 feet AGL
broken clouds at 8000 feet AGL
Weather: TSRA  (rain associated with thunderstorm(s))